Time;durP1;ratioP1;P1;durP2;ratioP2;P2;SDS_P1;SDS_P2;PMS_P1;PMS_P2;Temp;Humidity;BMP_temperature;BMP_pressure;BME280_temperature;BME280_humidity;BME280_pressure;Samples;Min_cycle;Max_cycle;Signal;HPM_P1;HPM_P2
2023/07/07 00:01:13;;;;;;;;;;;24.10;84.40;;;;;;5075263;28;19912;-79
2023/07/07 00:03:39;;;;;;;;;;;24.20;84.80;;;;;;5075085;28;19916;-81
2023/07/07 00:06:05;;;;;;;;;;;24.20;84.80;;;;;;5075208;28;20012;-80
2023/07/07 00:08:31;;;;;;;;;;;24.20;85.30;;;;;;5064460;28;19913;-80
2023/07/07 00:10:58;;;;;;;;;;;24.10;85.60;;;;;;5046311;28;20015;-79
2023/07/07 00:13:24;;;;;;;;;;;24.10;85.70;;;;;;5068438;28;20380;-79
2023/07/07 00:15:49;;;;;;;;;;;24.10;85.90;;;;;;5074838;28;19951;-80
2023/07/07 00:18:16;;;;;;;;;;;24.00;86.20;;;;;;5074877;28;19961;-79
2023/07/07 00:20:42;;;;;;;;;;;24.00;86.50;;;;;;5075088;28;19978;-78
2023/07/07 00:23:08;;;;;;;;;;;24.00;86.90;;;;;;5078201;28;20362;-77
2023/07/07 00:25:33;;;;;;;;;;;24.00;87.10;;;;;;5078556;28;20003;-78
2023/07/07 00:27:59;;;;;;;;;;;24.00;87.40;;;;;;5056878;28;20293;-79
2023/07/07 00:30:25;;;;;;;;;;;24.00;87.50;;;;;;5074686;28;20385;-77
2023/07/07 00:32:50;;;;;;;;;;;23.90;87.70;;;;;;5061344;28;19969;-79
2023/07/07 00:35:16;;;;;;;;;;;23.90;87.90;;;;;;5075071;28;20325;-79
2023/07/07 00:37:45;;;;;;;;;;;23.90;88.00;;;;;;5075391;28;19909;-79
2023/07/07 00:40:11;;;;;;;;;;;23.90;88.20;;;;;;5074731;28;20373;-79
2023/07/07 00:42:36;;;;;;;;;;;23.90;88.40;;;;;;5070323;28;19909;-77
2023/07/07 00:45:05;;;;;;;;;;;23.90;88.50;;;;;;5065038;28;19993;-79
2023/07/07 00:47:31;;;;;;;;;;;23.90;88.80;;;;;;5056569;28;19915;-80
2023/07/07 00:49:57;;;;;;;;;;;23.80;89.00;;;;;;5073780;28;20007;-78
2023/07/07 00:52:23;;;;;;;;;;;23.80;89.20;;;;;;5073737;28;20011;-79
2023/07/07 00:54:49;;;;;;;;;;;23.70;89.30;;;;;;5073854;28;19909;-78
2023/07/07 00:57:15;;;;;;;;;;;23.70;89.70;;;;;;5073975;28;19912;-78
2023/07/07 00:59:42;;;;;;;;;;;23.60;90.00;;;;;;5078347;28;19908;-79
2023/07/07 01:02:24;;;;;;;;;;;23.50;90.10;;;;;;5082263;28;19923;-79
2023/07/07 01:04:51;;;;;;;;;;;23.50;90.40;;;;;;5072965;28;20342;-79
2023/07/07 01:07:22;;;;;;;;;;;23.40;90.50;;;;;;5052634;28;19909;-79
2023/07/07 01:09:48;;;;;;;;;;;23.40;90.70;;;;;;5068612;28;19919;-78
2023/07/07 01:12:14;;;;;;;;;;;23.30;90.90;;;;;;5072200;28;19924;-77
2023/07/07 01:14:40;;;;;;;;;;;23.20;91.00;;;;;;5075384;28;19916;-78
2023/07/07 01:17:18;;;;;;;;;;;23.20;91.10;;;;;;5071022;28;20400;-78
2023/07/07 01:19:50;;;;;;;;;;;23.20;91.30;;;;;;5075197;28;19961;-78
2023/07/07 01:22:16;;;;;;;;;;;23.10;91.60;;;;;;5074953;28;20373;-79
2023/07/07 01:25:17;;;;;;;;;;;23.00;91.70;;;;;;5075029;28;20038;-78
2023/07/07 01:27:49;;;;;;;;;;;23.00;91.80;;;;;;4993259;28;19918;-76
2023/07/07 01:30:27;;;;;;;;;;;23.00;92.30;;;;;;4993529;28;19909;-79
2023/07/07 01:32:53;;;;;;;;;;;22.90;92.20;;;;;;4991094;28;20428;-79
2023/07/07 01:35:20;;;;;;;;;;;22.90;92.20;;;;;;4991830;28;19914;-78
2023/07/07 01:37:51;;;;;;;;;;;22.90;92.30;;;;;;4991700;28;19914;-79
2023/07/07 01:40:17;;;;;;;;;;;22.90;92.40;;;;;;4992592;28;19909;-78
2023/07/07 01:42:46;;;;;;;;;;;22.90;92.60;;;;;;4991574;28;20311;-78
2023/07/07 01:45:26;;;;;;;;;;;22.80;92.60;;;;;;4992522;28;19968;-79
2023/07/07 01:48:07;;;;;;;;;;;22.80;92.70;;;;;;4991219;28;19968;-77
2023/07/07 01:50:33;;;;;;;;;;;22.90;92.70;;;;;;4992552;28;19963;-77
2023/07/07 01:53:08;;;;;;;;;;;22.90;92.80;;;;;;4991469;28;19961;-78
2023/07/07 01:55:36;;;;;;;;;;;22.90;92.90;;;;;;4991441;28;19910;-80
2023/07/07 01:58:03;;;;;;;;;;;22.90;92.90;;;;;;4991329;28;20000;-79
2023/07/07 02:00:30;;;;;;;;;;;22.90;93.00;;;;;;4991699;28;19976;-79
2023/07/07 02:02:57;;;;;;;;;;;22.90;93.00;;;;;;5071890;28;19919;-78
2023/07/07 02:05:22;;;;;;;;;;;23.00;93.10;;;;;;5072559;28;19997;-79
2023/07/07 02:07:48;;;;;;;;;;;23.00;93.00;;;;;;5072455;28;19982;-80
2023/07/07 02:10:14;;;;;;;;;;;23.00;93.00;;;;;;5072935;28;19921;-78
2023/07/07 02:12:39;;;;;;;;;;;23.10;93.00;;;;;;5076409;28;19916;-78
2023/07/07 02:15:05;;;;;;;;;;;23.10;93.10;;;;;;5073579;28;19912;-78
2023/07/07 02:17:31;;;;;;;;;;;23.00;93.10;;;;;;5073119;28;20273;-79
2023/07/07 02:19:57;;;;;;;;;;;23.00;93.20;;;;;;5073207;28;19913;-76
2023/07/07 02:22:22;;;;;;;;;;;23.00;93.20;;;;;;5074847;28;19939;-77
2023/07/07 02:24:48;;;;;;;;;;;23.00;93.30;;;;;;5072798;28;19913;-77
2023/07/07 02:27:14;;;;;;;;;;;23.00;93.40;;;;;;5071780;28;19909;-77
2023/07/07 02:29:39;;;;;;;;;;;23.00;93.40;;;;;;5072547;28;20015;-78
2023/07/07 02:32:06;;;;;;;;;;;23.00;93.30;;;;;;5054327;28;19921;-79
2023/07/07 02:34:32;;;;;;;;;;;23.10;93.50;;;;;;5073362;28;19994;-78
2023/07/07 02:36:58;;;;;;;;;;;23.10;93.40;;;;;;5072473;28;20396;-79
2023/07/07 02:39:24;;;;;;;;;;;23.10;93.50;;;;;;5067645;28;20380;-78
2023/07/07 02:41:50;;;;;;;;;;;23.10;93.40;;;;;;5045933;28;19916;-78
2023/07/07 02:44:16;;;;;;;;;;;23.10;93.50;;;;;;5072252;28;19987;-79
2023/07/07 02:46:42;;;;;;;;;;;23.10;93.50;;;;;;5072836;28;20400;-78
2023/07/07 02:49:07;;;;;;;;;;;23.10;93.50;;;;;;5072785;28;19915;-79
2023/07/07 02:51:33;;;;;;;;;;;23.20;93.60;;;;;;5053448;28;19924;-79
2023/07/07 02:53:59;;;;;;;;;;;23.30;93.50;;;;;;5072660;28;20350;-78
2023/07/07 02:56:24;;;;;;;;;;;23.30;93.40;;;;;;5073265;28;20301;-78
2023/07/07 02:58:50;;;;;;;;;;;23.40;93.30;;;;;;5073064;28;19935;-79
2023/07/07 03:01:17;;;;;;;;;;;23.50;93.20;;;;;;5072828;28;19951;-80
2023/07/07 03:03:44;;;;;;;;;;;23.60;93.10;;;;;;5072780;28;19913;-79
2023/07/07 03:06:12;;;;;;;;;;;23.70;93.00;;;;;;5054189;28;20293;-79
2023/07/07 03:08:37;;;;;;;;;;;23.70;92.80;;;;;;5071508;28;19956;-76
2023/07/07 03:11:05;;;;;;;;;;;23.80;92.70;;;;;;5065636;28;19936;-79
2023/07/07 03:13:30;;;;;;;;;;;24.00;92.60;;;;;;5073396;28;20392;-76
2023/07/07 03:15:56;;;;;;;;;;;24.10;92.30;;;;;;5072922;28;19908;-79
2023/07/07 03:18:22;;;;;;;;;;;24.10;92.00;;;;;;5072231;28;19909;-79
2023/07/07 03:20:48;;;;;;;;;;;24.20;91.80;;;;;;5072114;28;19943;-78
2023/07/07 03:23:14;;;;;;;;;;;24.20;91.80;;;;;;5071282;28;19912;-78
2023/07/07 03:25:40;;;;;;;;;;;24.40;91.80;;;;;;5043981;28;19913;-80
2023/07/07 03:28:05;;;;;;;;;;;24.60;91.60;;;;;;5068259;28;19947;-79
2023/07/07 03:30:31;;;;;;;;;;;24.70;91.40;;;;;;5056349;28;19909;-78
2023/07/07 03:32:56;;;;;;;;;;;24.80;91.00;;;;;;5061184;28;19923;-79
2023/07/07 03:35:22;;;;;;;;;;;24.70;90.90;;;;;;5069267;28;20003;-78
2023/07/07 03:37:48;;;;;;;;;;;24.70;90.90;;;;;;5072076;28;19948;-78
2023/07/07 03:40:14;;;;;;;;;;;24.80;90.80;;;;;;5075049;28;19916;-78
2023/07/07 03:42:39;;;;;;;;;;;24.80;90.70;;;;;;5075350;28;19913;-79
2023/07/07 03:45:05;;;;;;;;;;;24.80;90.80;;;;;;5075870;28;19974;-79
2023/07/07 03:47:31;;;;;;;;;;;24.80;90.70;;;;;;5076231;28;19961;-80
2023/07/07 03:49:57;;;;;;;;;;;24.70;90.70;;;;;;5083709;28;19999;-78
2023/07/07 03:52:22;;;;;;;;;;;24.70;90.80;;;;;;5089546;28;19916;-76
2023/07/07 03:54:48;;;;;;;;;;;24.70;90.90;;;;;;5091317;28;19947;-77
2023/07/07 03:57:14;;;;;;;;;;;24.90;90.80;;;;;;5077133;28;20006;-79
2023/07/07 03:59:39;;;;;;;;;;;24.90;90.60;;;;;;5076534;28;19913;-78
2023/07/07 04:02:06;;;;;;;;;;;24.90;90.40;;;;;;5076605;28;19966;-77
2023/07/07 04:04:31;;;;;;;;;;;25.00;90.30;;;;;;5075340;28;19969;-79
2023/07/07 04:06:57;;;;;;;;;;;25.10;90.10;;;;;;5074867;28;19916;-79
2023/07/07 04:09:23;;;;;;;;;;;25.20;90.00;;;;;;5074838;28;19920;-79
2023/07/07 04:11:49;;;;;;;;;;;25.20;89.40;;;;;;5056415;28;19921;-79
2023/07/07 04:14:15;;;;;;;;;;;25.00;89.70;;;;;;5075007;28;19919;-77
2023/07/07 04:16:41;;;;;;;;;;;24.90;90.00;;;;;;5074751;28;20062;-80
2023/07/07 04:19:07;;;;;;;;;;;24.90;90.10;;;;;;5056827;28;19999;-78
2023/07/07 04:21:34;;;;;;;;;;;25.00;90.00;;;;;;5056707;28;20564;-80
2023/07/07 04:24:00;;;;;;;;;;;25.00;89.30;;;;;;5074729;28;19974;-77
2023/07/07 04:26:27;;;;;;;;;;;25.10;89.40;;;;;;5075240;28;19914;-78
2023/07/07 04:28:53;;;;;;;;;;;25.30;89.00;;;;;;5053348;28;19944;-78
2023/07/07 04:31:28;;;;;;;;;;;25.40;88.00;;;;;;5065353;28;19916;-82
2023/07/07 04:33:54;;;;;;;;;;;25.70;87.60;;;;;;5074203;28;20006;-78
2023/07/07 04:36:20;;;;;;;;;;;26.10;87.00;;;;;;5074559;28;20360;-78
2023/07/07 04:38:46;;;;;;;;;;;26.10;85.80;;;;;;5071292;28;19915;-78
2023/07/07 04:41:13;;;;;;;;;;;26.20;85.90;;;;;;5063289;28;20366;-79
2023/07/07 04:43:40;;;;;;;;;;;26.10;85.20;;;;;;5074333;28;20259;-78
2023/07/07 04:46:06;;;;;;;;;;;26.10;85.20;;;;;;5074101;28;19908;-76
2023/07/07 04:48:32;;;;;;;;;;;26.30;85.10;;;;;;5071325;28;19913;-79
2023/07/07 04:50:59;;;;;;;;;;;26.40;84.20;;;;;;5078846;28;20023;-79
2023/07/07 04:53:25;;;;;;;;;;;26.30;84.00;;;;;;5075669;28;20441;-79
2023/07/07 04:55:51;;;;;;;;;;;26.10;84.10;;;;;;5070993;28;20285;-79
2023/07/07 04:58:16;;;;;;;;;;;26.10;84.50;;;;;;5052657;28;19909;-78
2023/07/07 05:00:42;;;;;;;;;;;26.30;84.40;;;;;;5070747;28;20444;-77
2023/07/07 05:03:07;;;;;;;;;;;26.30;83.40;;;;;;5073813;28;19913;-79
2023/07/07 05:05:36;;;;;;;;;;;26.00;83.30;;;;;;5073592;28;19919;-79
2023/07/07 05:08:02;;;;;;;;;;;26.00;83.80;;;;;;5069366;28;19913;-78
2023/07/07 05:10:28;;;;;;;;;;;25.90;84.10;;;;;;5056384;28;19921;-79
2023/07/07 05:12:55;;;;;;;;;;;25.80;84.40;;;;;;5072890;28;20169;-79
2023/07/07 05:15:23;;;;;;;;;;;25.50;85.10;;;;;;5056011;28;19948;-80
2023/07/07 05:17:50;;;;;;;;;;;25.50;85.60;;;;;;5068755;28;19968;-79
2023/07/07 05:20:15;;;;;;;;;;;25.60;85.60;;;;;;5055474;28;20301;-79
2023/07/07 05:22:41;;;;;;;;;;;25.90;85.40;;;;;;5073450;28;19915;-79
2023/07/07 05:25:07;;;;;;;;;;;25.90;85.10;;;;;;5072361;28;19962;-79
2023/07/07 05:27:32;;;;;;;;;;;26.00;84.60;;;;;;5073792;28;19916;-78
2023/07/07 05:29:58;;;;;;;;;;;26.00;84.60;;;;;;5074893;28;20341;-80
2023/07/07 05:32:24;;;;;;;;;;;25.90;84.80;;;;;;5060686;28;19917;-79
2023/07/07 05:34:50;;;;;;;;;;;26.10;85.30;;;;;;5060113;28;19916;-78
2023/07/07 05:37:15;;;;;;;;;;;26.60;84.60;;;;;;5073469;28;19915;-79
2023/07/07 05:39:41;;;;;;;;;;;26.80;82.70;;;;;;5073180;28;20301;-78
2023/07/07 05:42:07;;;;;;;;;;;27.10;82.70;;;;;;5072250;28;20262;-78
2023/07/07 05:44:32;;;;;;;;;;;27.60;82.30;;;;;;5073454;28;19913;-79
2023/07/07 05:46:58;;;;;;;;;;;28.00;80.60;;;;;;5073561;28;19931;-78
2023/07/07 05:49:24;;;;;;;;;;;28.20;79.60;;;;;;5076375;28;19982;-77
2023/07/07 05:51:49;;;;;;;;;;;28.40;79.40;;;;;;5056163;28;20437;-79
2023/07/07 05:54:15;;;;;;;;;;;28.70;78.90;;;;;;5072401;28;19916;-78
2023/07/07 05:56:41;;;;;;;;;;;28.80;77.60;;;;;;5067574;28;20398;-78
2023/07/07 05:59:06;;;;;;;;;;;28.80;76.90;;;;;;5068415;28;19913;-78
2023/07/07 06:01:33;;;;;;;;;;;28.90;76.50;;;;;;5053919;28;19950;-78
2023/07/07 06:03:59;;;;;;;;;;;29.10;76.90;;;;;;5063543;28;19915;-78
2023/07/07 06:06:25;;;;;;;;;;;28.60;75.30;;;;;;5063994;28;19924;-77
2023/07/07 06:08:50;;;;;;;;;;;28.00;76.80;;;;;;5072456;28;19909;-79
2023/07/07 06:11:16;;;;;;;;;;;27.70;78.00;;;;;;5071865;28;19920;-76
2023/07/07 06:13:42;;;;;;;;;;;27.70;78.40;;;;;;5072263;28;19935;-75
2023/07/07 06:16:07;;;;;;;;;;;27.60;78.70;;;;;;5071300;28;19912;-75
2023/07/07 06:18:34;;;;;;;;;;;27.80;79.10;;;;;;5072081;28;19912;-77
2023/07/07 06:21:00;;;;;;;;;;;28.00;78.40;;;;;;5054125;28;19908;-76
2023/07/07 06:23:28;;;;;;;;;;;28.40;78.00;;;;;;5072101;28;19915;-77
2023/07/07 06:25:54;;;;;;;;;;;28.50;77.30;;;;;;5072246;28;20373;-77
2023/07/07 06:28:20;;;;;;;;;;;28.50;76.50;;;;;;5051640;28;19962;-75
2023/07/07 06:30:49;;;;;;;;;;;28.30;76.80;;;;;;5071426;28;20377;-76
2023/07/07 06:33:18;;;;;;;;;;;28.20;77.10;;;;;;5072756;28;20011;-77
2023/07/07 06:35:44;;;;;;;;;;;28.00;77.10;;;;;;5051003;28;19909;-78
2023/07/07 06:38:10;;;;;;;;;;;27.90;77.20;;;;;;5064183;28;19915;-76
2023/07/07 06:40:35;;;;;;;;;;;27.80;77.60;;;;;;5071993;28;19908;-76
2023/07/07 06:43:01;;;;;;;;;;;27.90;77.70;;;;;;5054482;28;19995;-77
2023/07/07 06:45:27;;;;;;;;;;;27.90;77.50;;;;;;5072490;28;20358;-77
2023/07/07 06:47:53;;;;;;;;;;;27.90;77.40;;;;;;5054730;28;19981;-75
2023/07/07 06:50:33;;;;;;;;;;;27.90;77.30;;;;;;5053907;28;20385;-76
2023/07/07 06:52:59;;;;;;;;;;;27.90;77.00;;;;;;5072346;28;19916;-77
2023/07/07 06:55:25;;;;;;;;;;;27.90;77.10;;;;;;5071885;28;19928;-75
2023/07/07 06:57:50;;;;;;;;;;;27.70;77.40;;;;;;5072429;28;20293;-77
2023/07/07 07:00:16;;;;;;;;;;;27.50;78.10;;;;;;5054156;28;20015;-76
2023/07/07 07:02:43;;;;;;;;;;;27.40;78.50;;;;;;5071236;28;19995;-76
2023/07/07 07:05:09;;;;;;;;;;;27.30;78.80;;;;;;5064699;28;20290;-74
2023/07/07 07:07:34;;;;;;;;;;;27.40;78.80;;;;;;5072871;28;19912;-76
2023/07/07 07:10:02;;;;;;;;;;;27.50;78.70;;;;;;5071962;28;19954;-77
2023/07/07 07:12:28;;;;;;;;;;;27.40;78.30;;;;;;5071968;28;19963;-77
2023/07/07 07:14:54;;;;;;;;;;;27.10;78.50;;;;;;5074644;28;20448;-78
2023/07/07 07:17:21;;;;;;;;;;;26.80;79.10;;;;;;5075496;28;19953;-76
2023/07/07 07:19:46;;;;;;;;;;;26.60;80.20;;;;;;5060995;28;19959;-78
2023/07/07 07:22:13;;;;;;;;;;;26.40;81.10;;;;;;5057396;28;19908;-78
2023/07/07 07:24:38;;;;;;;;;;;26.20;81.90;;;;;;5075813;28;19998;-77
2023/07/07 07:27:05;;;;;;;;;;;26.00;82.40;;;;;;5075530;28;19954;-77
2023/07/07 07:29:30;;;;;;;;;;;25.80;82.90;;;;;;5075977;28;19908;-77
2023/07/07 07:31:56;;;;;;;;;;;25.80;83.10;;;;;;5058254;28;20400;-77
2023/07/07 07:34:26;;;;;;;;;;;25.90;83.00;;;;;;5078837;28;19970;-76
2023/07/07 07:36:53;;;;;;;;;;;26.00;82.90;;;;;;5081710;28;19937;-77
2023/07/07 07:39:19;;;;;;;;;;;26.10;83.00;;;;;;5077296;28;19920;-76
2023/07/07 07:41:46;;;;;;;;;;;26.10;83.00;;;;;;5075411;28;19916;-77
2023/07/07 07:44:12;;;;;;;;;;;26.30;83.20;;;;;;5074773;28;20019;-76
2023/07/07 07:46:38;;;;;;;;;;;26.40;83.30;;;;;;5053562;28;20368;-76
2023/07/07 07:49:04;;;;;;;;;;;26.50;83.10;;;;;;5072564;28;19999;-76
2023/07/07 07:51:29;;;;;;;;;;;26.50;83.00;;;;;;5074533;28;19939;-77
2023/07/07 07:53:55;;;;;;;;;;;26.50;82.90;;;;;;5073944;28;19986;-77
2023/07/07 07:56:21;;;;;;;;;;;26.50;83.10;;;;;;5053246;28;19912;-76
2023/07/07 07:58:47;;;;;;;;;;;26.50;83.30;;;;;;5050384;28;19915;-77
2023/07/07 08:01:12;;;;;;;;;;;26.70;83.30;;;;;;5074547;28;19908;-78
2023/07/07 08:03:38;;;;;;;;;;;26.90;82.80;;;;;;5074336;28;20377;-76
2023/07/07 08:06:04;;;;;;;;;;;26.90;82.50;;;;;;5073956;28;19912;-78
2023/07/07 08:08:29;;;;;;;;;;;26.80;82.90;;;;;;5056351;28;19908;-77
2023/07/07 08:10:55;;;;;;;;;;;26.90;82.90;;;;;;5055836;28;20014;-77
2023/07/07 08:13:21;;;;;;;;;;;27.10;82.60;;;;;;5074106;28;19970;-78
2023/07/07 08:15:46;;;;;;;;;;;26.90;82.20;;;;;;5052146;28;19995;-76
2023/07/07 08:18:12;;;;;;;;;;;26.70;82.50;;;;;;5074181;28;19954;-76
2023/07/07 08:20:38;;;;;;;;;;;26.70;82.90;;;;;;5052771;28;20007;-78
2023/07/07 08:23:05;;;;;;;;;;;26.70;83.00;;;;;;5067685;28;19982;-76
2023/07/07 08:25:34;;;;;;;;;;;26.70;82.80;;;;;;5072753;28;19909;-78
2023/07/07 08:28:00;;;;;;;;;;;26.50;82.90;;;;;;5074124;28;19908;-77
2023/07/07 08:30:25;;;;;;;;;;;26.30;83.60;;;;;;5074034;28;19916;-75
2023/07/07 08:32:51;;;;;;;;;;;26.10;83.80;;;;;;5073080;28;19924;-77
2023/07/07 08:35:17;;;;;;;;;;;25.90;84.20;;;;;;5073743;28;19908;-77
2023/07/07 08:37:42;;;;;;;;;;;25.70;85.20;;;;;;5055974;28;19909;-77
2023/07/07 08:40:12;;;;;;;;;;;25.70;85.70;;;;;;5056294;28;19974;-76
2023/07/07 08:42:39;;;;;;;;;;;25.40;86.40;;;;;;5074743;28;19958;-78
2023/07/07 08:45:14;;;;;;;;;;;25.00;87.50;;;;;;5073876;28;20043;-77
2023/07/07 08:47:54;;;;;;;;;;;24.50;89.50;;;;;;5073827;28;19908;-77
2023/07/07 08:50:35;;;;;;;;;;;24.30;90.20;;;;;;5072893;28;20297;-76
2023/07/07 08:53:03;;;;;;;;;;;24.40;90.60;;;;;;5073721;28;19917;-77
2023/07/07 08:55:37;;;;;;;;;;;24.50;90.80;;;;;;5073413;28;19912;-78
2023/07/07 08:58:05;;;;;;;;;;;24.70;90.60;;;;;;5073793;28;19954;-76
2023/07/07 09:00:31;;;;;;;;;;;24.80;90.50;;;;;;5073758;28;19944;-77
2023/07/07 09:03:05;;;;;;;;;;;24.90;90.40;;;;;;5052283;28;19955;-77
2023/07/07 09:05:34;;;;;;;;;;;25.00;90.40;;;;;;5066576;28;19919;-77
2023/07/07 09:08:03;;;;;;;;;;;25.10;90.50;;;;;;5071541;28;19925;-78
2023/07/07 09:10:31;;;;;;;;;;;25.20;90.30;;;;;;5055105;28;19951;-77
2023/07/07 09:12:59;;;;;;;;;;;25.00;90.30;;;;;;5055131;28;19924;-78
2023/07/07 09:15:28;;;;;;;;;;;25.10;90.50;;;;;;5073422;28;19913;-77
2023/07/07 09:18:04;;;;;;;;;;;25.20;90.50;;;;;;5055418;28;19938;-76
2023/07/07 09:20:31;;;;;;;;;;;25.30;90.40;;;;;;5073275;28;19951;-78
2023/07/07 09:23:03;;;;;;;;;;;25.30;90.40;;;;;;5054220;28;19908;-77
2023/07/07 09:25:42;;;;;;;;;;;25.40;90.40;;;;;;5071561;28;20397;-76
2023/07/07 09:28:09;;;;;;;;;;;25.50;90.40;;;;;;5055590;28;19915;-76
2023/07/07 09:30:35;;;;;;;;;;;25.70;90.30;;;;;;5073244;28;19913;-76
2023/07/07 09:33:01;;;;;;;;;;;26.00;90.10;;;;;;5073836;28;20289;-77
2023/07/07 09:35:31;;;;;;;;;;;26.10;89.90;;;;;;5074916;28;19927;-78
2023/07/07 09:38:09;;;;;;;;;;;26.10;89.50;;;;;;5055573;28;20003;-77
2023/07/07 09:40:35;;;;;;;;;;;26.20;89.80;;;;;;5074136;28;20234;-78
2023/07/07 09:43:00;;;;;;;;;;;26.10;89.00;;;;;;5076274;28;19916;-77
2023/07/07 09:45:43;;;;;;;;;;;25.80;89.30;;;;;;5073375;28;19915;-78
2023/07/07 09:48:09;;;;;;;;;;;25.60;89.70;;;;;;5073086;28;19912;-77
2023/07/07 09:50:39;;;;;;;;;;;25.50;89.50;;;;;;5053421;28;19913;-77
2023/07/07 09:53:25;;;;;;;;;;;25.50;89.50;;;;;;5072765;28;20007;-78
2023/07/07 09:55:51;;;;;;;;;;;25.70;89.90;;;;;;5051007;28;19920;-77
2023/07/07 09:58:23;;;;;;;;;;;26.10;89.40;;;;;;5061327;28;19915;-77
2023/07/07 10:00:51;;;;;;;;;;;26.40;88.90;;;;;;5072629;28;20265;-77
2023/07/07 10:03:22;;;;;;;;;;;26.80;87.70;;;;;;5051311;28;19916;-77
2023/07/07 10:05:49;;;;;;;;;;;26.90;86.50;;;;;;5068061;28;20085;-78
2023/07/07 10:08:14;;;;;;;;;;;27.10;85.60;;;;;;5072651;28;19919;-77
2023/07/07 10:10:40;;;;;;;;;;;27.50;85.00;;;;;;5071759;28;19920;-76
2023/07/07 10:13:14;;;;;;;;;;;28.50;83.50;;;;;;5072455;28;20288;-78
2023/07/07 10:15:46;;;;;;;;;;;29.90;82.20;;;;;;5072493;28;19916;-77
2023/07/07 10:18:14;;;;;;;;;;;31.30;78.40;;;;;;5054483;28;19908;-77
2023/07/07 10:20:40;;;;;;;;;;;32.70;77.20;;;;;;5072825;28;19909;-77
2023/07/07 10:23:09;;;;;;;;;;;33.40;73.90;;;;;;5051174;28;19909;-77
2023/07/07 10:25:35;;;;;;;;;;;33.30;70.30;;;;;;5057437;28;19912;-78
2023/07/07 10:28:01;;;;;;;;;;;33.00;70.70;;;;;;5072167;28;19908;-77
2023/07/07 10:30:27;;;;;;;;;;;32.60;68.60;;;;;;5071239;28;19908;-76
2023/07/07 10:32:53;;;;;;;;;;;31.90;67.60;;;;;;5054374;28;19927;-77
2023/07/07 10:35:24;;;;;;;;;;;31.20;67.60;;;;;;5073233;28;19913;-76
2023/07/07 10:37:50;;;;;;;;;;;30.50;69.00;;;;;;5072064;28;20154;-79
2023/07/07 10:40:21;;;;;;;;;;;30.30;69.70;;;;;;5072236;28;20361;-76
2023/07/07 10:42:52;;;;;;;;;;;29.90;69.60;;;;;;5072255;28;19982;-77
2023/07/07 10:45:18;;;;;;;;;;;29.30;70.70;;;;;;5072126;28;19916;-77
2023/07/07 10:47:44;;;;;;;;;;;28.90;71.30;;;;;;5050360;28;19912;-78
2023/07/07 10:50:14;;;;;;;;;;;28.50;71.40;;;;;;5050290;28;19921;-76
2023/07/07 10:52:55;;;;;;;;;;;28.30;71.90;;;;;;5075569;28;20361;-78
2023/07/07 10:55:24;;;;;;;;;;;28.20;72.20;;;;;;5054469;28;20380;-77
2023/07/07 10:57:59;;;;;;;;;;;28.00;72.20;;;;;;5075890;28;19931;-79
2023/07/07 11:00:32;;;;;;;;;;;27.70;72.70;;;;;;5075758;28;19913;-78
2023/07/07 11:03:10;;;;;;;;;;;27.50;73.40;;;;;;5075814;28;19923;-77
2023/07/07 11:05:36;;;;;;;;;;;27.20;74.60;;;;;;5075307;28;20411;-77
2023/07/07 11:08:09;;;;;;;;;;;26.90;76.00;;;;;;5041993;28;19913;-76
2023/07/07 11:10:53;;;;;;;;;;;26.70;77.00;;;;;;5075658;28;19932;-77
2023/07/07 11:13:39;;;;;;;;;;;26.70;77.70;;;;;;5054629;28;19921;-77
2023/07/07 11:16:14;;;;;;;;;;;26.60;78.00;;;;;;5050745;28;20276;-78
2023/07/07 11:18:55;;;;;;;;;;;26.50;78.40;;;;;;5058959;28;19916;-76
2023/07/07 11:21:38;;;;;;;;;;;26.50;79.20;;;;;;5075375;28;19928;-78
2023/07/07 11:24:17;;;;;;;;;;;26.70;78.40;;;;;;5045586;28;20330;-78
2023/07/07 11:27:01;;;;;;;;;;;27.00;78.40;;;;;;5055921;28;20008;-76
2023/07/07 11:29:30;;;;;;;;;;;27.20;78.30;;;;;;5065761;28;20007;-76
2023/07/07 11:31:59;;;;;;;;;;;27.50;77.90;;;;;;5053799;28;19916;-77
2023/07/07 11:34:28;;;;;;;;;;;27.80;77.50;;;;;;5075689;28;19960;-77
2023/07/07 11:37:09;;;;;;;;;;;28.10;76.90;;;;;;5074993;28;19912;-76
2023/07/07 11:39:57;;;;;;;;;;;28.40;76.40;;;;;;5076507;28;19913;-77
2023/07/07 11:42:23;;;;;;;;;;;28.60;75.60;;;;;;5079128;28;19908;-76
2023/07/07 11:44:48;;;;;;;;;;;28.60;75.10;;;;;;5081338;28;19908;-79
2023/07/07 11:47:30;;;;;;;;;;;28.60;75.00;;;;;;5062472;28;19956;-77
2023/07/07 11:50:05;;;;;;;;;;;28.70;75.00;;;;;;5055942;28;19951;-77
2023/07/07 11:52:37;;;;;;;;;;;28.70;74.90;;;;;;5055190;28;19923;-77
2023/07/07 11:55:04;;;;;;;;;;;28.80;74.60;;;;;;5074545;28;20260;-78
2023/07/07 11:57:48;;;;;;;;;;;28.70;74.20;;;;;;5074739;28;19912;-76
2023/07/07 12:00:20;;;;;;;;;;;28.50;74.10;;;;;;5053500;28;19961;-77
2023/07/07 12:02:57;;;;;;;;;;;28.30;74.50;;;;;;5073363;28;19909;-77
2023/07/07 12:05:32;;;;;;;;;;;28.20;74.40;;;;;;5053922;28;19909;-79
2023/07/07 12:08:01;;;;;;;;;;;28.20;74.70;;;;;;5074368;28;19909;-78
2023/07/07 12:10:43;;;;;;;;;;;28.20;74.80;;;;;;5056017;28;20281;-78
2023/07/07 12:13:11;;;;;;;;;;;28.30;74.80;;;;;;5074382;28;20003;-77
2023/07/07 12:15:39;;;;;;;;;;;28.40;74.30;;;;;;5053110;28;19909;-79
2023/07/07 12:18:10;;;;;;;;;;;28.40;74.30;;;;;;5069149;28;20285;-77
2023/07/07 12:21:01;;;;;;;;;;;28.40;73.90;;;;;;5074479;28;19924;-77
2023/07/07 12:23:30;;;;;;;;;;;28.40;73.90;;;;;;5055789;28;19917;-77
2023/07/07 12:26:09;;;;;;;;;;;28.50;74.00;;;;;;5074272;28;19912;-78
2023/07/07 12:28:36;;;;;;;;;;;28.60;73.70;;;;;;5075113;28;19977;-77
2023/07/07 12:31:02;;;;;;;;;;;28.60;73.40;;;;;;5075495;28;19908;-77
2023/07/07 12:33:38;;;;;;;;;;;28.60;73.30;;;;;;5074281;28;20412;-79
2023/07/07 12:36:06;;;;;;;;;;;28.60;73.50;;;;;;5074301;28;19965;-78
2023/07/07 12:38:33;;;;;;;;;;;28.80;73.60;;;;;;5074015;28;19909;-78
2023/07/07 12:41:17;;;;;;;;;;;29.00;73.20;;;;;;5074151;28;20312;-77
2023/07/07 12:43:44;;;;;;;;;;;29.10;72.60;;;;;;5073347;28;19955;-77
2023/07/07 12:46:18;;;;;;;;;;;29.30;72.40;;;;;;5073791;28;19916;-78
2023/07/07 12:48:47;;;;;;;;;;;29.40;72.30;;;;;;5073673;28;19923;-77
2023/07/07 12:51:15;;;;;;;;;;;29.50;71.90;;;;;;5073797;28;19916;-76
2023/07/07 12:53:43;;;;;;;;;;;29.40;71.30;;;;;;5073441;28;19924;-76
2023/07/07 12:56:09;;;;;;;;;;;29.40;71.60;;;;;;5052134;28;19920;-77
2023/07/07 12:58:41;;;;;;;;;;;29.60;71.80;;;;;;5064811;28;19916;-79
2023/07/07 13:01:23;;;;;;;;;;;29.70;71.60;;;;;;5073432;28;20050;-77
2023/07/07 13:04:00;;;;;;;;;;;29.50;70.80;;;;;;5074077;28;19952;-77
2023/07/07 13:06:26;;;;;;;;;;;29.40;71.30;;;;;;5074919;28;19947;-77
2023/07/07 13:09:03;;;;;;;;;;;29.30;71.60;;;;;;5074162;28;20258;-77
2023/07/07 13:11:35;;;;;;;;;;;29.20;72.00;;;;;;5072816;28;20380;-78
2023/07/07 13:14:01;;;;;;;;;;;29.10;72.20;;;;;;5052358;28;19909;-77
2023/07/07 13:16:27;;;;;;;;;;;29.10;72.30;;;;;;5066122;28;20284;-78
2023/07/07 13:18:54;;;;;;;;;;;29.20;72.30;;;;;;5073453;28;20238;-76
2023/07/07 13:21:22;;;;;;;;;;;29.20;72.40;;;;;;5055224;28;19919;-79
2023/07/07 13:23:49;;;;;;;;;;;29.30;72.50;;;;;;5055202;28;20003;-77
2023/07/07 13:26:32;;;;;;;;;;;29.40;72.40;;;;;;5073381;28;19912;-77
2023/07/07 13:29:03;;;;;;;;;;;29.50;72.30;;;;;;5055250;28;19912;-76
2023/07/07 13:31:28;;;;;;;;;;;29.50;71.80;;;;;;5054734;28;20377;-77
2023/07/07 13:33:54;;;;;;;;;;;29.60;71.70;;;;;;5051899;28;19917;-77
2023/07/07 13:36:20;;;;;;;;;;;29.70;71.70;;;;;;5046025;28;19935;-78
2023/07/07 13:38:47;;;;;;;;;;;29.70;71.50;;;;;;5055024;28;20423;-77
2023/07/07 13:41:13;;;;;;;;;;;29.50;71.30;;;;;;5072134;28;19966;-76
2023/07/07 13:43:42;;;;;;;;;;;29.20;71.30;;;;;;5055098;28;20002;-77
2023/07/07 13:46:19;;;;;;;;;;;29.00;71.80;;;;;;5073566;28;19991;-76
2023/07/07 13:48:49;;;;;;;;;;;28.80;72.30;;;;;;5073686;28;19919;-77
2023/07/07 13:51:19;;;;;;;;;;;28.60;72.60;;;;;;5073076;28;19912;-79
2023/07/07 13:53:44;;;;;;;;;;;28.50;73.00;;;;;;5072866;28;19996;-79
2023/07/07 13:56:10;;;;;;;;;;;28.40;73.40;;;;;;5072600;28;19909;-76
2023/07/07 13:58:40;;;;;;;;;;;28.30;73.70;;;;;;5073200;28;20001;-78
2023/07/07 14:01:13;;;;;;;;;;;28.20;74.10;;;;;;5073202;28;19908;-77
2023/07/07 14:03:44;;;;;;;;;;;28.10;74.30;;;;;;5072920;28;19912;-78
2023/07/07 14:06:11;;;;;;;;;;;27.90;74.60;;;;;;5050236;28;19935;-77
2023/07/07 14:08:37;;;;;;;;;;;27.80;74.70;;;;;;5063126;28;20448;-77
2023/07/07 14:11:05;;;;;;;;;;;27.70;75.40;;;;;;5054475;28;19963;-77
2023/07/07 14:13:32;;;;;;;;;;;27.70;75.40;;;;;;5071815;28;19928;-76
2023/07/07 14:16:08;;;;;;;;;;;27.60;75.50;;;;;;5072181;28;20362;-77
2023/07/07 14:18:40;;;;;;;;;;;27.50;75.80;;;;;;5072310;28;20393;-77
2023/07/07 14:21:08;;;;;;;;;;;27.40;75.80;;;;;;5051401;28;19909;-76
2023/07/07 14:23:34;;;;;;;;;;;27.40;76.40;;;;;;5052123;28;20416;-78